Página principal
METAR-TAF:

METAR-TAF

Aeroportos :

Weno, Micronésia

latitude: 07-28N, longitude: 151-51E, altura: 3 m

Observação actual do tempo

O boletim foi feito há 1 hora e 0 minutos, às 11:54 UTC
Vento 7 kt de nordeste
Temperatura 27°C
Humidade 94%
Pressão 1008 hPa
Visibilidade: 20.9 km
Poucas nuvensa uma altura de 1300 ft, Cumulus congestus.
Nuvens fragmentadasa uma altura de 12000 ft
Encobertoa uma altura de 28000 ft
aguaceiros fracos de chuva

METAR: PTKK 161154Z 04007KT 13SM -SHRA FEW013TCU BKN120 OVC280 27/26 A2978 RMK TCU N-NE WIND DATA ESTIMATED SLP088 60005 70019 8/278 T02690258 10279 20264 52010

Hora: 22:54 (12:54 UTC)

Previsão

O boletim foi feito há 1 hora e 34 minutos, às 11:20 UTC
Previsão válida de 16 às 12 UTC a 17 às 12 UTC
Vento 11 kt de nordeste
Visibilidade: 10 km
Nuvens dispersasa uma altura de 1200 ft
Nuvens fragmentadasa uma altura de 12000 ft
aguaceiros nas vizinhanças

TAF: PTKK 161120Z 1612/1712 05011KT P6SM VCSH SCT012 BKN120

Observações e previsões do tempo de mais de 4000 aeroportos (mensagens METAR e TAF).

As estações disponíveis são os pontos amarelos e vermelhos sobre o mapa.

Mova o rato sobre o mapa para ver o nome da estação.

Depois clique no ponto para visualizar as observações e previsões meteorológicas.

Para alterar o mapa : clique nos botões verdes com uma cruz preta para aumentar o zoom; no botão verde com uma pitada de zoom; ou nas setas verdes para mapas adjacentes.


METAR-TAF: